Time;durP1;ratioP1;P1;durP2;ratioP2;P2;SDS_P1;SDS_P2;PMS_P1;PMS_P2;Temp;Humidity;BMP_temperature;BMP_pressure;BME280_temperature;BME280_humidity;BME280_pressure;Samples;Min_cycle;Max_cycle;Signal;HPM_P1;HPM_P2
2024/02/23 00:02:14;;;;;;;1.40;1.30;;;;;;;11.23;100.00;97763.16;182942;1237;46061;-82
2024/02/23 00:06:16;;;;;;;2.70;1.50;;;;;;;11.20;100.00;97763.14;182748;1233;44012;-83
2024/02/23 00:10:18;;;;;;;2.30;0.90;;;;;;;11.23;100.00;97763.66;182680;1234;46112;-83
2024/02/23 00:14:20;;;;;;;1.90;1.30;;;;;;;11.25;100.00;97761.79;183105;1237;58124;-83
2024/02/23 00:18:22;;;;;;;0.80;0.60;;;;;;;11.28;100.00;97759.48;182757;1234;46089;-83
2024/02/23 00:22:25;;;;;;;1.90;0.90;;;;;;;11.33;100.00;97755.25;183064;1237;46110;-83
2024/02/23 00:26:28;;;;;;;1.20;1.00;;;;;;;11.38;100.00;97756.69;182454;1233;45996;-82
2024/02/23 00:30:30;;;;;;;1.80;0.90;;;;;;;11.45;100.00;97757.06;182798;1234;46031;-81
2024/02/23 00:34:32;;;;;;;1.70;0.70;;;;;;;11.49;100.00;97755.29;183158;1235;57850;-82
2024/02/23 00:38:34;;;;;;;2.50;1.00;;;;;;;11.55;100.00;97758.12;183560;1235;44333;-82
2024/02/23 00:42:35;;;;;;;1.00;0.90;;;;;;;11.63;100.00;97763.58;182727;1237;46055;-82
2024/02/23 00:46:37;;;;;;;0.50;0.50;;;;;;;11.66;100.00;97755.73;183180;1233;46014;-82
2024/02/23 00:50:39;;;;;;;0.90;0.50;;;;;;;11.65;100.00;97742.53;183416;1236;46170;-82
2024/02/23 00:54:40;;;;;;;0.80;0.50;;;;;;;11.63;100.00;97720.07;183337;1237;58512;-81
2024/02/23 00:58:42;;;;;;;1.40;0.80;;;;;;;11.63;100.00;97708.16;182752;1234;46184;-82
2024/02/23 01:02:43;;;;;;;2.70;0.60;;;;;;;11.71;100.00;97714.10;183152;1237;46093;-82
2024/02/23 01:06:45;;;;;;;1.90;1.00;;;;;;;11.72;100.00;97702.80;182707;1233;46247;-82
2024/02/23 01:10:47;;;;;;;1.60;0.80;;;;;;;11.72;100.00;97688.41;182980;1237;46187;-82
2024/02/23 01:14:48;;;;;;;1.70;0.90;;;;;;;11.78;100.00;97716.92;182847;1237;57852;-82
2024/02/23 01:18:51;;;;;;;1.00;0.70;;;;;;;11.77;100.00;97718.31;182788;1234;46053;-82
2024/02/23 01:22:52;;;;;;;1.80;0.90;;;;;;;11.80;100.00;97697.48;182708;1234;46078;-82
2024/02/23 01:26:55;;;;;;;0.80;0.60;;;;;;;11.75;100.00;97689.57;182918;1233;45980;-82
2024/02/23 01:30:56;;;;;;;1.60;0.60;;;;;;;11.76;100.00;97688.69;183073;1234;46097;-82
2024/02/23 01:34:58;;;;;;;0.90;0.80;;;;;;;11.82;100.00;97704.83;183574;1234;58120;-82
2024/02/23 01:39:00;;;;;;;0.70;0.60;;;;;;;11.87;100.00;97724.46;183004;1234;45934;-82
2024/02/23 01:43:05;;;;;;;1.10;0.70;;;;;;;11.87;100.00;97728.56;182783;1234;45983;-82
2024/02/23 01:47:07;;;;;;;0.50;0.50;;;;;;;11.90;100.00;97739.43;183511;1234;45994;-82
2024/02/23 01:51:08;;;;;;;0.50;0.50;;;;;;;11.90;100.00;97742.39;183699;1237;46078;-82
2024/02/23 01:55:10;;;;;;;0.80;0.60;;;;;;;11.95;100.00;97748.65;183250;1233;59239;-82
2024/02/23 01:59:13;;;;;;;0.50;0.50;;;;;;;12.00;100.00;97758.40;182609;1234;45974;-82
2024/02/23 02:03:14;;;;;;;0.90;0.80;;;;;;;11.99;100.00;97768.59;183162;1234;46625;-81
2024/02/23 02:07:18;;;;;;;1.30;0.90;;;;;;;12.00;100.00;97774.38;183126;1237;46062;-82
2024/02/23 02:11:20;;;;;;;2.00;0.70;;;;;;;11.97;100.00;97769.15;183129;1237;46194;-83
2024/02/23 02:15:21;;;;;;;1.50;1.10;;;;;;;11.93;100.00;97764.08;183283;1234;59432;-82
2024/02/23 02:19:23;;;;;;;1.10;0.80;;;;;;;11.94;100.00;97766.51;182638;1234;45978;-82
2024/02/23 02:23:28;;;;;;;1.20;1.00;;;;;;;11.94;100.00;97759.49;182502;1237;46652;-82
2024/02/23 02:27:29;;;;;;;3.30;1.80;;;;;;;11.94;100.00;97761.30;183098;1233;46095;-83
2024/02/23 02:31:36;;;;;;;2.00;1.30;;;;;;;11.92;100.00;97769.52;183379;1235;44058;-82
2024/02/23 02:35:38;;;;;;;1.90;1.40;;;;;;;11.90;100.00;97767.64;182839;1237;57778;-81
2024/02/23 02:39:40;;;;;;;2.90;1.80;;;;;;;11.85;100.00;97754.86;182508;1237;46594;-83
2024/02/23 02:43:41;;;;;;;4.60;1.60;;;;;;;11.86;100.00;97756.67;183490;1237;45941;-82
2024/02/23 02:47:43;;;;;;;2.20;2.00;;;;;;;11.83;100.00;97756.34;183133;1234;45973;-82
2024/02/23 02:51:45;;;;;;;2.30;2.10;;;;;;;11.79;100.00;97750.31;183127;1233;45998;-82
2024/02/23 02:55:47;;;;;;;1.50;1.30;;;;;;;11.81;100.00;97755.79;182491;1237;60000;-82
2024/02/23 02:59:50;;;;;;;2.30;1.60;;;;;;;11.84;100.00;97770.34;183438;1234;45922;-82
2024/02/23 03:03:51;;;;;;;1.90;1.70;;;;;;;11.87;100.00;97783.63;183174;1239;45935;-82
2024/02/23 03:07:53;;;;;;;2.30;1.70;;;;;;;11.90;100.00;97803.86;182997;1234;46044;-83
2024/02/23 03:11:54;;;;;;;3.20;2.50;;;;;;;11.90;100.00;97813.13;183111;1234;44170;-83
2024/02/23 03:15:56;;;;;;;3.10;1.70;;;;;;;11.85;100.00;97813.64;182878;1236;57531;-82
2024/02/23 03:19:58;;;;;;;2.60;1.70;;;;;;;11.79;100.00;97824.36;183391;1237;45957;-82
2024/02/23 03:24:00;;;;;;;2.50;1.70;;;;;;;11.73;100.00;97835.17;183431;1234;45992;-82
2024/02/23 03:28:01;;;;;;;2.50;1.40;;;;;;;11.68;100.00;97844.69;183770;1237;44385;-83
2024/02/23 03:32:03;;;;;;;1.70;1.50;;;;;;;11.71;100.00;97853.20;183123;1234;46061;-82
2024/02/23 03:36:05;;;;;;;3.50;2.40;;;;;;;11.71;100.00;97864.30;183356;1237;59246;-83
2024/02/23 03:40:08;;;;;;;5.50;3.80;;;;;;;11.71;100.00;97867.11;183256;1234;46090;-82
2024/02/23 03:44:09;;;;;;;2.60;2.30;;;;;;;11.68;100.00;97871.95;184427;1235;46557;-82
2024/02/23 03:48:11;;;;;;;3.10;2.80;;;;;;;11.68;100.00;97871.23;183021;1234;46014;-82
2024/02/23 03:52:13;;;;;;;3.20;2.60;;;;;;;11.66;100.00;97872.69;182982;1235;46035;-82
2024/02/23 03:56:14;;;;;;;3.10;2.80;;;;;;;11.64;100.00;97877.25;183554;1234;59435;-82
2024/02/23 04:00:17;;;;;;;6.10;4.50;;;;;;;11.61;100.00;97883.30;182668;1234;46060;-82
2024/02/23 04:04:19;;;;;;;6.60;4.20;;;;;;;11.59;100.00;97894.55;182847;1238;46173;-82
2024/02/23 04:08:21;;;;;;;5.10;4.20;;;;;;;11.53;100.00;97903.79;182647;1234;46623;-82
2024/02/23 04:12:22;;;;;;;4.10;3.70;;;;;;;11.47;100.00;97897.10;183433;1235;44728;-82
2024/02/23 04:16:27;;;;;;;5.90;4.60;;;;;;;11.43;100.00;97901.11;183496;1237;59239;-82
2024/02/23 04:20:29;;;;;;;5.10;4.70;;;;;;;11.41;100.00;97912.11;182671;1234;46122;-82
2024/02/23 04:24:30;;;;;;;8.40;4.90;;;;;;;11.42;100.00;97920.07;183066;1235;45976;-82
2024/02/23 04:28:33;;;;;;;6.40;5.40;;;;;;;11.43;100.00;97932.33;183048;1237;46107;-82
2024/02/23 04:32:35;;;;;;;6.80;4.40;;;;;;;11.41;100.00;97931.78;183485;1233;46097;-82
2024/02/23 04:36:37;;;;;;;8.00;5.60;;;;;;;11.44;100.00;97943.23;183251;1235;59273;-82
2024/02/23 04:40:38;;;;;;;5.60;3.60;;;;;;;11.48;100.00;97952.40;182927;1234;46082;-82
2024/02/23 04:44:43;;;;;;;6.40;4.50;;;;;;;11.47;100.00;97962.54;182928;1237;46004;-82
2024/02/23 04:48:44;;;;;;;9.50;5.90;;;;;;;11.49;100.00;97966.34;183422;1237;45895;-82
2024/02/23 04:52:46;;;;;;;6.10;5.20;;;;;;;11.48;100.00;97976.04;183214;1237;46266;-82
2024/02/23 04:56:48;;;;;;;5.30;4.80;;;;;;;11.47;100.00;97980.31;182830;1237;58527;-82
2024/02/23 05:00:49;;;;;;;4.60;4.10;;;;;;;11.43;100.00;97992.16;183226;1236;45946;-82
2024/02/23 05:04:51;;;;;;;5.10;4.60;;;;;;;11.38;100.00;98003.85;183423;1235;46069;-82
2024/02/23 05:08:52;;;;;;;4.60;4.20;;;;;;;11.34;100.00;98014.70;183355;1237;45964;-81
2024/02/23 05:12:54;;;;;;;5.90;4.00;;;;;;;11.31;100.00;98025.86;182882;1235;44819;-82
2024/02/23 05:16:56;;;;;;;3.70;3.40;;;;;;;11.29;100.00;98036.01;183592;1235;59476;-82
2024/02/23 05:20:58;;;;;;;3.80;3.30;;;;;;;11.25;100.00;98044.48;182997;1235;45983;-81
2024/02/23 05:24:59;;;;;;;6.30;5.40;;;;;;;11.20;100.00;98050.73;183175;1234;46083;-82
2024/02/23 05:29:02;;;;;;;3.40;3.10;;;;;;;11.17;100.00;98060.42;183543;1235;46544;-82
2024/02/23 05:33:04;;;;;;;5.30;4.80;;;;;;;11.11;100.00;98067.92;182938;1235;46036;-82
2024/02/23 05:37:06;;;;;;;6.30;4.70;;;;;;;11.13;100.00;98078.34;183620;1234;59321;-82
2024/02/23 05:41:12;;;;;;;8.10;5.70;;;;;;;11.10;100.00;98085.27;183031;1234;46045;-82
2024/02/23 05:45:14;;;;;;;;;;;;;;;11.09;100.00;98094.09;182340;1235;46031;-83
2024/02/23 05:49:15;;;;;;;5.40;4.00;;;;;;;11.07;100.00;98094.70;183079;1237;45941;-82
2024/02/23 05:53:17;;;;;;;5.10;3.60;;;;;;;11.03;100.00;98105.75;183118;1235;45106;-82
2024/02/23 05:57:19;;;;;;;3.10;2.80;;;;;;;11.02;100.00;98115.35;183242;1235;58322;-82
2024/02/23 06:01:21;;;;;;;3.10;2.40;;;;;;;11.00;100.00;98122.79;182818;1235;46106;-81
2024/02/23 06:05:23;;;;;;;2.20;1.40;;;;;;;11.02;99.21;98132.41;183166;1235;46103;-83
2024/02/23 06:09:28;;;;;;;0.60;0.50;;;;;;;11.04;96.18;98141.49;183109;1237;46016;-82
2024/02/23 06:13:30;;;;;;;0.40;0.30;;;;;;;11.17;93.25;98147.09;182892;1237;46081;-82
2024/02/23 06:17:32;;;;;;;0.70;0.60;;;;;;;11.33;92.01;98154.27;182823;1235;59242;-82
2024/02/23 06:21:34;;;;;;;1.80;0.90;;;;;;;11.39;91.59;98172.17;183308;1237;45990;-81
2024/02/23 06:25:36;;;;;;;2.80;0.80;;;;;;;11.45;90.62;98178.30;183484;1237;46053;-82
2024/02/23 06:29:38;;;;;;;0.40;0.40;;;;;;;11.45;90.80;98191.84;183188;1237;45960;-81
2024/02/23 06:33:40;;;;;;;1.30;0.40;;;;;;;11.45;89.59;98190.44;183120;1235;46084;-82
2024/02/23 06:37:42;;;;;;;1.20;0.70;;;;;;;11.48;89.03;98199.30;182844;1235;58153;-83
2024/02/23 06:41:44;;;;;;;1.10;0.60;;;;;;;11.50;88.59;98206.87;183565;1237;46191;-83
2024/02/23 06:45:45;;;;;;;0.80;0.50;;;;;;;11.52;88.53;98212.66;182970;1237;46052;-83
2024/02/23 06:49:47;;;;;;;0.50;0.40;;;;;;;11.52;87.62;98217.98;183407;1237;46056;-83
2024/02/23 06:53:49;;;;;;;1.00;0.40;;;;;;;11.52;86.63;98227.11;183242;1235;46029;-82
2024/02/23 06:57:50;;;;;;;0.60;0.30;;;;;;;11.60;86.75;98233.46;183146;1234;58260;-82
2024/02/23 07:01:52;;;;;;;1.10;0.30;;;;;;;11.61;86.23;98237.05;184232;1234;45000;-81
2024/02/23 07:05:54;;;;;;;2.90;0.80;;;;;;;11.62;86.29;98233.94;183446;1235;45974;-82
2024/02/23 07:09:56;;;;;;;0.70;0.30;;;;;;;11.62;85.58;98235.90;184318;1235;45854;-82
2024/02/23 07:13:57;;;;;;;1.60;0.10;;;;;;;11.61;86.46;98247.48;183735;1233;45015;-82
2024/02/23 07:17:59;;;;;;;0.60;0.20;;;;;;;11.65;86.71;98261.39;183959;1235;56855;-82
2024/02/23 07:22:02;;;;;;;2.00;0.20;;;;;;;11.66;86.54;98274.42;184201;1234;44068;-82
2024/02/23 07:26:03;;;;;;;3.10;0.90;;;;;;;11.53;84.23;98294.06;184613;1234;46068;-82
2024/02/23 07:30:06;;;;;;;0.90;0.60;;;;;;;11.27;74.62;98303.60;183892;1236;45967;-82
2024/02/23 07:34:08;;;;;;;1.20;0.30;;;;;;;11.04;73.69;98316.42;183213;1235;44082;-82
2024/02/23 07:38:10;;;;;;;1.30;0.70;;;;;;;10.94;71.72;98320.55;183257;1234;59280;-83
2024/02/23 07:42:14;;;;;;;0.60;0.40;;;;;;;10.80;69.22;98325.33;183248;1236;45944;-82
2024/02/23 07:46:16;;;;;;;1.00;0.40;;;;;;;10.74;69.06;98330.65;183807;1235;45999;-82
2024/02/23 07:50:19;;;;;;;0.40;0.40;;;;;;;10.69;69.31;98340.91;183986;1237;46030;-82
2024/02/23 07:54:20;;;;;;;0.90;0.70;;;;;;;10.66;70.50;98346.50;183063;1235;44310;-81
2024/02/23 07:58:22;;;;;;;1.20;0.50;;;;;;;10.66;71.35;98356.69;182860;1234;58087;-82
2024/02/23 08:02:23;;;;;;;1.40;0.50;;;;;;;10.67;71.43;98366.31;183512;1234;45974;-82
2024/02/23 08:06:25;;;;;;;2.80;0.60;;;;;;;10.64;70.89;98373.01;183330;1235;43998;-83
2024/02/23 08:10:27;;;;;;;5.70;0.50;;;;;;;10.59;73.73;98383.19;183965;1234;45960;-83
2024/02/23 08:14:29;;;;;;;1.40;0.70;;;;;;;10.48;76.78;98392.05;183416;1235;45995;-82
2024/02/23 08:18:30;;;;;;;0.50;0.30;;;;;;;10.35;78.46;98394.41;183441;1234;58028;-81
2024/02/23 08:22:32;;;;;;;1.20;0.50;;;;;;;10.37;75.03;98381.89;183455;1235;46491;-82
2024/02/23 08:26:34;;;;;;;1.90;0.70;;;;;;;10.48;75.91;98390.55;183358;1234;43960;-82
2024/02/23 08:30:35;;;;;;;1.10;0.90;;;;;;;10.49;73.66;98396.13;183685;1235;46224;-82
2024/02/23 08:34:37;;;;;;;0.80;0.60;;;;;;;10.67;74.60;98404.99;183525;1233;46024;-82
2024/02/23 08:38:39;;;;;;;0.60;0.50;;;;;;;10.83;73.95;98413.61;184333;1234;57837;-82
2024/02/23 08:42:42;;;;;;;2.40;1.30;;;;;;;10.96;75.69;98426.88;184180;1237;45883;-82
2024/02/23 08:46:43;;;;;;;1.90;0.70;;;;;;;11.07;74.67;98430.23;183369;1234;46091;-82
2024/02/23 08:50:45;;;;;;;1.00;0.80;;;;;;;11.17;74.17;98440.38;182680;1233;46027;-82
2024/02/23 08:54:47;;;;;;;1.90;1.30;;;;;;;11.24;75.65;98443.59;183910;1233;45944;-82
2024/02/23 08:58:49;;;;;;;1.40;0.80;;;;;;;11.22;77.15;98449.89;183591;1237;59421;-81
2024/02/23 09:02:51;;;;;;;1.80;0.90;;;;;;;11.11;77.70;98456.64;183541;1235;46048;-82
2024/02/23 09:06:53;;;;;;;3.00;1.20;;;;;;;11.09;78.94;98460.90;183059;1235;45966;-82
2024/02/23 09:10:55;;;;;;;1.90;1.20;;;;;;;11.08;78.43;98460.01;183823;1235;45905;-81
2024/02/23 09:14:57;;;;;;;3.00;1.90;;;;;;;11.11;78.21;98466.61;183663;1233;45910;-82
2024/02/23 09:18:59;;;;;;;1.50;0.70;;;;;;;11.18;77.01;98477.95;183890;1233;57126;-82
2024/02/23 09:23:00;;;;;;;1.20;1.00;;;;;;;11.28;76.35;98485.92;183492;1236;46100;-83
2024/02/23 09:27:03;;;;;;;4.70;0.80;;;;;;;11.26;76.43;98490.98;183312;1235;46179;-82
2024/02/23 09:31:04;;;;;;;4.40;0.40;;;;;;;11.33;78.65;98493.88;183144;1233;44176;-81
2024/02/23 09:35:07;;;;;;;1.00;0.50;;;;;;;11.37;78.55;98503.24;183346;1235;46227;-82
2024/02/23 09:39:08;;;;;;;1.50;0.90;;;;;;;11.39;76.67;98510.98;183120;1235;58066;-82
2024/02/23 09:43:12;;;;;;;1.90;1.30;;;;;;;11.45;77.82;98517.25;183151;1235;46097;-83
2024/02/23 09:47:14;;;;;;;1.40;0.80;;;;;;;11.51;78.54;98521.83;184154;1233;45952;-82
2024/02/23 09:51:16;;;;;;;0.90;0.80;;;;;;;11.61;78.98;98524.81;183152;1235;46089;-83
2024/02/23 09:55:20;;;;;;;3.50;1.00;;;;;;;11.64;79.15;98527.15;182733;1233;46096;-82
2024/02/23 09:59:22;;;;;;;0.90;0.90;;;;;;;11.69;79.36;98520.86;183724;1234;58076;-82
2024/02/23 10:03:30;;;;;;;1.50;0.60;;;;;;;11.81;78.91;98519.89;182620;1235;46054;-82
2024/02/23 10:07:32;;;;;;;2.60;1.00;;;;;;;11.90;76.69;98526.18;183164;1234;46115;-83
2024/02/23 10:11:33;;;;;;;1.10;0.60;;;;;;;11.90;75.97;98530.73;183231;1233;46157;-82
2024/02/23 10:15:35;;;;;;;1.80;0.50;;;;;;;11.94;74.47;98538.64;183055;1233;46162;-79
2024/02/23 10:19:37;;;;;;;1.00;0.50;;;;;;;11.94;71.48;98545.73;183614;1233;59781;-80
2024/02/23 10:23:39;;;;;;;1.40;0.50;;;;;;;11.76;69.16;98554.40;182706;1235;46096;-80
2024/02/23 10:27:44;;;;;;;1.60;0.90;;;;;;;11.58;71.14;98559.20;182871;1234;46106;-81
2024/02/23 10:31:50;;;;;;;1.90;1.10;;;;;;;11.48;71.36;98562.91;183368;1234;46184;-80
2024/02/23 10:35:57;;;;;;;9.60;8.70;;;;;;;11.37;72.16;98570.99;184366;1234;46151;-80
2024/02/23 10:40:01;;;;;;;6.80;4.10;;;;;;;11.39;71.80;98574.48;183025;1236;57935;-80
2024/02/23 10:44:04;;;;;;;3.20;1.70;;;;;;;11.41;70.71;98573.27;185355;1233;46095;-81
2024/02/23 10:48:09;;;;;;;2.40;1.70;;;;;;;11.46;70.45;98576.77;184001;1234;45974;-80
2024/02/23 10:52:13;;;;;;;2.60;1.80;;;;;;;11.47;70.20;98569.89;183047;1235;45938;-80
2024/02/23 10:56:15;;;;;;;26.60;18.30;;;;;;;11.48;70.30;98564.25;182411;1234;46130;-80
2024/02/23 11:00:18;;;;;;;5.50;3.90;;;;;;;11.41;69.44;98563.45;183720;1235;59258;-81
2024/02/23 11:04:21;;;;;;;2.10;1.30;;;;;;;11.48;70.67;98557.86;184066;1233;45015;-81
2024/02/23 11:08:23;;;;;;;3.20;1.30;;;;;;;11.49;70.66;98553.98;183229;1233;45971;-80
2024/02/23 11:12:25;;;;;;;1.50;0.70;;;;;;;11.48;70.32;98541.58;183166;1233;46055;-80
2024/02/23 11:16:27;;;;;;;2.20;0.90;;;;;;;11.48;71.32;98541.02;183683;1237;46216;-80
2024/02/23 11:20:37;;;;;;;1.70;0.90;;;;;;;11.46;71.71;98539.79;183504;1235;57886;-81
2024/02/23 11:24:44;;;;;;;1.70;0.80;;;;;;;11.48;71.90;98531.99;184140;1234;44151;-81
2024/02/23 11:28:52;;;;;;;2.20;1.10;;;;;;;11.51;71.85;98537.60;184400;1234;212657;-80
2024/02/23 11:32:59;;;;;;;2.40;1.10;;;;;;;11.50;72.46;98540.45;182739;1237;46078;-80
2024/02/23 11:37:09;;;;;;;0.90;0.90;;;;;;;11.54;73.54;98542.65;184110;1233;46097;-81
2024/02/23 11:41:11;;;;;;;1.10;1.00;;;;;;;11.62;74.00;98552.88;182103;1233;60177;-81
2024/02/23 11:45:13;;;;;;;6.40;1.70;;;;;;;11.71;76.45;98565.89;183704;1234;45949;-81
2024/02/23 11:49:16;;;;;;;5.70;2.60;;;;;;;11.82;76.86;98579.73;184026;1234;46125;-81
2024/02/23 11:53:20;;;;;;;18.70;12.90;;;;;;;11.89;75.59;98583.65;183512;1233;45979;-81
2024/02/23 11:57:22;;;;;;;13.20;8.20;;;;;;;11.93;72.97;98576.58;184269;1234;44125;-81
2024/02/23 12:01:24;;;;;;;90.80;55.60;;;;;;;12.00;72.31;98587.17;183047;1233;57735;-81
2024/02/23 12:05:26;;;;;;;52.50;30.50;;;;;;;12.09;73.38;98599.45;183678;1234;46053;-81
2024/02/23 12:09:28;;;;;;;48.30;24.30;;;;;;;12.15;73.22;98602.17;183351;1233;46086;-81
2024/02/23 12:13:29;;;;;;;14.90;9.50;;;;;;;12.18;70.33;98601.85;183174;1235;46126;-81
2024/02/23 12:17:31;;;;;;;10.10;6.90;;;;;;;12.20;68.42;98608.91;182625;1237;46062;-81
2024/02/23 12:21:36;;;;;;;8.10;5.00;;;;;;;12.25;69.52;98618.84;183529;1237;57795;-81
2024/02/23 12:25:37;;;;;;;6.60;4.40;;;;;;;12.33;70.95;98618.11;183149;1234;46530;-81
2024/02/23 12:29:54;;;;;;;4.70;2.10;;;;;;;12.37;72.45;98621.31;185491;1235;92110;-63
2024/02/23 12:33:58;;;;;;;6.80;4.30;;;;;;;12.38;69.68;98618.14;184551;1234;46091;-80
2024/02/23 12:38:00;;;;;;;7.90;4.30;;;;;;;12.45;69.22;98616.68;183630;1236;46072;-80
2024/02/23 12:42:02;;;;;;;4.80;3.10;;;;;;;12.47;68.52;98619.05;183003;1236;58612;-80
2024/02/23 12:46:04;;;;;;;5.10;2.60;;;;;;;12.46;68.45;98614.03;183142;1236;46049;-80
2024/02/23 12:50:08;;;;;;;6.80;6.20;;;;;;;12.44;68.30;98613.26;182215;1232;46100;-80
2024/02/23 12:54:09;;;;;;;7.30;6.60;;;;;;;12.48;68.17;98617.59;181934;1234;45960;-79
2024/02/23 12:58:11;;;;;;;5.00;3.20;;;;;;;12.49;69.06;98624.95;184581;1232;45969;-80
2024/02/23 13:02:13;;;;;;;5.00;2.00;;;;;;;12.48;68.47;98628.44;182745;1232;59413;-81
2024/02/23 13:06:15;;;;;;;4.20;2.30;;;;;;;12.40;70.44;98636.13;183356;1232;46014;-82
2024/02/23 13:10:18;;;;;;;60.50;31.60;;;;;;;12.37;70.68;98637.34;182730;1234;46099;-81
2024/02/23 13:14:20;;;;;;;34.60;18.80;;;;;;;12.37;69.28;98632.55;183329;1232;45866;-81
2024/02/23 13:18:21;;;;;;;6.20;4.90;;;;;;;12.35;70.43;98631.71;183516;1236;46520;-80
2024/02/23 13:22:24;;;;;;;8.50;4.60;;;;;;;12.24;69.98;98633.87;183633;1232;58109;-81
2024/02/23 13:26:25;;;;;;;15.60;8.60;;;;;;;12.14;71.21;98628.98;183353;1234;46005;-81
2024/02/23 13:30:27;;;;;;;27.80;15.80;;;;;;;12.10;72.08;98631.86;182325;1232;46085;-82
2024/02/23 13:34:29;;;;;;;9.90;4.60;;;;;;;12.02;72.77;98638.83;182548;1236;46110;-81
2024/02/23 13:38:31;;;;;;;32.50;19.60;;;;;;;11.95;71.77;98635.69;183342;1232;44148;-82
2024/02/23 13:42:32;;;;;;;16.40;10.40;;;;;;;11.98;73.08;98632.11;184129;1233;57763;-81
2024/02/23 13:46:40;;;;;;;16.30;8.90;;;;;;;12.00;74.26;98635.14;184270;1234;46027;-81
2024/02/23 13:50:42;;;;;;;12.00;8.00;;;;;;;11.97;73.97;98635.27;182915;1233;46642;-81
2024/02/23 13:54:44;;;;;;;12.50;3.10;;;;;;;11.94;74.45;98632.98;185258;1233;44664;-81
2024/02/23 13:58:48;;;;;;;5.60;4.20;;;;;;;11.91;75.37;98625.55;184117;1233;43983;-83
2024/02/23 14:02:50;;;;;;;5.70;3.50;;;;;;;11.90;76.13;98627.96;184699;1232;58874;-83
2024/02/23 14:06:52;;;;;;;6.90;3.40;;;;;;;11.72;78.63;98631.57;184145;1236;46082;-83
2024/02/23 14:10:54;;;;;;;4.50;3.00;;;;;;;11.26;82.98;98635.05;184317;1236;45977;-81
2024/02/23 14:14:56;;;;;;;7.90;4.60;;;;;;;11.12;84.32;98643.27;184045;1232;45981;-83
2024/02/23 14:18:57;;;;;;;34.10;21.20;;;;;;;11.07;85.69;98649.70;182877;1232;46190;-82
2024/02/23 14:22:59;;;;;;;134.50;76.60;;;;;;;10.99;86.77;98655.16;183407;1236;57926;-82
2024/02/23 14:27:01;;;;;;;24.70;16.00;;;;;;;10.88;87.25;98645.70;184458;1234;44686;-83
2024/02/23 14:31:04;;;;;;;12.40;6.50;;;;;;;10.82;87.39;98640.55;184330;1232;44078;-85
2024/02/23 14:35:05;;;;;;;8.10;5.10;;;;;;;10.72;89.51;98640.73;184030;1236;46183;-83
2024/02/23 14:39:08;;;;;;;16.00;10.20;;;;;;;10.64;91.36;98641.70;184811;1234;44731;-85
2024/02/23 14:43:10;;;;;;;14.80;10.00;;;;;;;10.63;91.25;98640.80;185051;1232;58171;-84
2024/02/23 14:47:13;;;;;;;13.80;11.60;;;;;;;10.62;90.75;98639.53;186240;1232;45995;-90
2024/02/23 14:51:15;;;;;;;18.50;11.80;;;;;;;10.64;90.10;98643.35;185559;1232;44425;-86
2024/02/23 14:55:17;;;;;;;32.60;20.50;;;;;;;10.59;90.49;98644.75;185614;1234;45893;-88
2024/02/23 14:59:19;;;;;;;36.20;23.70;;;;;;;10.62;90.51;98645.21;186230;1234;45919;-91
2024/02/23 15:03:21;;;;;;;19.90;17.30;;;;;;;10.70;90.35;98646.28;185702;1236;58066;-82
2024/02/23 15:07:23;;;;;;;15.00;9.80;;;;;;;10.80;89.99;98641.09;185134;1236;45867;-88
2024/02/23 15:11:25;;;;;;;10.00;7.70;;;;;;;10.84;90.38;98633.38;184779;1234;44635;-87
2024/02/23 15:15:27;;;;;;;16.50;9.80;;;;;;;10.78;91.19;98631.38;185292;1232;44706;-85
2024/02/23 15:19:29;;;;;;;8.80;5.90;;;;;;;10.73;90.46;98629.29;185016;1234;44428;-87
2024/02/23 15:23:31;;;;;;;7.60;5.80;;;;;;;10.66;91.18;98625.79;184351;1236;57884;-88
2024/02/23 15:27:32;;;;;;;37.20;21.00;;;;;;;10.71;90.12;98627.84;184378;1233;46107;-85
2024/02/23 15:31:34;;;;;;;148.00;83.40;;;;;;;10.67;89.31;98622.85;184558;1236;46048;-85
2024/02/23 15:35:39;;;;;;;206.50;108.60;;;;;;;10.55;89.84;98623.02;184977;1232;44915;-89
2024/02/23 15:39:41;;;;;;;29.80;18.60;;;;;;;10.44;90.31;98629.02;183739;1233;46079;-88
2024/02/23 15:43:42;;;;;;;20.80;10.90;;;;;;;10.37;91.20;98634.44;184094;1233;59329;-90
2024/02/23 15:47:44;;;;;;;18.80;10.70;;;;;;;10.26;92.76;98632.48;183425;1232;45945;-85
2024/02/23 15:51:46;;;;;;;20.30;9.00;;;;;;;10.15;94.34;98633.86;183894;1234;44104;-90
2024/02/23 15:55:58;;;;;;;17.20;9.00;;;;;;;10.05;93.24;98634.14;183392;1233;44831;-89
2024/02/23 16:00:00;;;;;;;18.50;12.00;;;;;;;9.99;93.20;98645.73;183673;1232;44420;-88
2024/02/23 16:04:09;;;;;;;24.80;17.20;;;;;;;9.94;94.14;98657.82;183416;1233;59323;-89
2024/02/23 16:08:12;;;;;;;25.20;11.20;;;;;;;9.95;93.91;98668.91;183440;1233;46015;-89
2024/02/23 16:12:17;;;;;;;15.20;8.60;;;;;;;9.87;94.36;98673.39;184336;1236;46078;-91
2024/02/23 16:16:19;;;;;;;17.50;9.60;;;;;;;9.79;95.22;98671.95;183440;1236;45970;-90
2024/02/23 16:20:21;;;;;;;13.90;9.10;;;;;;;9.77;95.02;98670.91;184065;1236;45961;-88
2024/02/23 16:24:23;;;;;;;22.40;12.90;;;;;;;9.62;95.57;98669.39;184600;1232;58460;-85
2024/02/23 16:28:24;;;;;;;11.50;7.80;;;;;;;9.46;96.99;98666.08;184140;1233;44571;-87
2024/02/23 16:32:26;;;;;;;7.30;6.00;;;;;;;9.19;99.43;98663.73;183897;1233;45953;-87
2024/02/23 16:36:28;;;;;;;12.70;6.40;;;;;;;9.08;99.76;98658.46;185612;1232;45873;-89
2024/02/23 16:40:30;;;;;;;7.00;5.30;;;;;;;9.01;100.00;98646.65;185800;1236;44669;-90
2024/02/23 16:44:43;;;;;;;14.40;8.50;;;;;;;8.82;100.00;98650.07;184775;1232;59386;-84
2024/02/23 16:48:58;;;;;;;73.20;42.90;;;;;;;8.92;100.00;98678.98;185648;1233;44429;-88
2024/02/23 16:53:00;;;;;;;106.10;56.30;;;;;;;8.87;100.00;98694.55;184646;1234;45967;-90
2024/02/23 16:57:11;;;;;;;50.00;25.70;;;;;;;8.86;100.00;98700.39;185583;1236;46075;-89
2024/02/23 17:01:13;;;;;;;50.10;24.50;;;;;;;8.85;100.00;98698.42;185346;1232;44896;-84
2024/02/23 17:05:30;;;;;;;66.70;33.30;;;;;;;8.86;100.00;98708.17;184523;1234;58175;-86
2024/02/23 17:09:34;;;;;;;64.40;29.90;;;;;;;8.87;100.00;98709.92;185033;1234;45087;-89
2024/02/23 17:13:37;;;;;;;42.00;24.50;;;;;;;8.87;100.00;98702.42;184876;1234;45822;-89
2024/02/23 17:17:39;;;;;;;40.00;24.50;;;;;;;8.82;100.00;98696.91;184697;1236;44580;-87
2024/02/23 17:21:41;;;;;;;46.30;22.00;;;;;;;8.82;100.00;98688.98;185056;1233;46008;-87
2024/02/23 17:25:44;;;;;;;39.60;21.20;;;;;;;8.77;100.00;98699.77;185093;1234;58091;-89
2024/02/23 17:29:48;;;;;;;33.50;15.00;;;;;;;8.75;100.00;98713.85;184925;1233;45983;-88
2024/02/23 17:33:50;;;;;;;27.70;14.30;;;;;;;8.76;100.00;98704.11;185442;1233;44659;-84
2024/02/23 17:37:52;;;;;;;26.10;13.30;;;;;;;8.68;100.00;98710.16;185179;1234;45928;-86
2024/02/23 17:41:54;;;;;;;18.90;9.70;;;;;;;8.64;100.00;98714.95;185691;1233;46455;-86
2024/02/23 17:45:56;;;;;;;14.70;8.10;;;;;;;8.66;100.00;98720.90;184714;1232;58049;-88
2024/02/23 17:49:59;;;;;;;16.10;9.70;;;;;;;8.66;100.00;98716.89;185838;1236;45495;-89
2024/02/23 17:54:01;;;;;;;14.00;10.20;;;;;;;8.71;100.00;98716.76;186652;1234;43915;-88
2024/02/23 17:58:03;;;;;;;47.60;26.30;;;;;;;8.66;100.00;98718.46;186442;1235;43942;-85
2024/02/23 18:02:17;;;;;;;60.10;28.70;;;;;;;8.60;100.00;98731.98;186506;1234;43637;-87
2024/02/23 18:06:22;;;;;;;32.90;18.10;;;;;;;8.56;100.00;98736.02;186004;1232;59182;-89
2024/02/23 18:10:26;;;;;;;36.40;21.50;;;;;;;8.56;100.00;98739.26;185280;1235;44859;-86
2024/02/23 18:14:29;;;;;;;47.60;27.50;;;;;;;8.53;100.00;98736.15;184670;1233;45937;-88
2024/02/23 18:18:31;;;;;;;127.80;74.80;;;;;;;8.51;100.00;98734.40;184505;1234;45994;-90
2024/02/23 18:22:33;;;;;;;114.10;70.00;;;;;;;8.44;100.00;98738.55;184549;1232;45948;-86
2024/02/23 18:26:35;;;;;;;36.80;21.10;;;;;;;8.36;100.00;98728.90;184790;1232;58095;-90
2024/02/23 18:30:41;;;;;;;25.60;15.90;;;;;;;8.26;100.00;98727.64;184643;1237;46005;-90
2024/02/23 18:34:43;;;;;;;21.60;13.80;;;;;;;8.28;100.00;98725.86;184571;1234;46130;-90
2024/02/23 18:38:47;;;;;;;25.20;16.50;;;;;;;8.28;100.00;98726.02;185031;1234;45249;-90